Time;durP1;ratioP1;P1;durP2;ratioP2;P2;SDS_P1;SDS_P2;PMS_P1;PMS_P2;Temp;Humidity;BMP_temperature;BMP_pressure;BME280_temperature;BME280_humidity;BME280_pressure;Samples;Min_cycle;Max_cycle;Signal;HPM_P1;HPM_P2
2023/04/22 00:02:04;;;;;;;5.83;2.63;;;;;;;7.95;79.89;99498.66;5007584;28;20029;-70
2023/04/22 00:04:29;;;;;;;7.33;3.20;;;;;;;7.93;79.82;99462.63;5006323;28;20487;-70
2023/04/22 00:06:55;;;;;;;8.20;3.70;;;;;;;7.95;79.93;99493.34;5007609;28;20061;-70
2023/04/22 00:09:21;;;;;;;6.57;2.92;;;;;;;8.04;79.84;99497.59;5007285;28;20041;-71
2023/04/22 00:11:46;;;;;;;5.73;3.30;;;;;;;8.01;80.08;99491.81;4989693;28;20593;-71
2023/04/22 00:14:11;;;;;;;7.67;3.83;;;;;;;8.01;80.37;99537.00;5007158;28;20554;-70
2023/04/22 00:16:37;;;;;;;5.67;3.20;;;;;;;7.99;80.52;99521.22;5022501;28;20038;-75
2023/04/22 00:19:03;;;;;;;6.90;3.70;;;;;;;7.98;80.62;99518.72;5005968;28;20037;-73
2023/04/22 00:21:29;;;;;;;;;;;;;;;7.91;81.25;99554.97;5022857;28;20376;-71
2023/04/22 00:23:54;;;;;;;6.97;3.78;;;;;;;7.92;81.56;99588.53;5006924;28;19996;-71
2023/04/22 00:26:20;;;;;;;7.17;3.33;;;;;;;7.91;82.19;99632.88;5007357;28;20037;-70
2023/04/22 00:28:45;;;;;;;7.82;3.35;;;;;;;7.87;82.47;99638.72;5003134;28;20286;-70
2023/04/22 00:31:11;;;;;;;8.80;4.70;;;;;;;7.93;82.79;99688.53;5006141;28;20036;-72
2023/04/22 00:33:36;;;;;;;5.47;3.63;;;;;;;7.89;83.17;99687.19;5022532;28;20041;-69
2023/04/22 00:36:02;;;;;;;6.18;3.30;;;;;;;7.80;83.64;99687.25;5005845;28;20040;-75
2023/04/22 00:38:27;;;;;;;7.27;4.23;;;;;;;7.83;84.28;99749.84;5007469;28;20034;-72
2023/04/22 00:40:53;;;;;;;14.73;4.20;;;;;;;7.85;84.43;99745.19;5021935;28;20289;-73
2023/04/22 00:43:18;;;;;;;5.67;3.57;;;;;;;7.82;84.80;99742.88;5005696;28;20029;-69
2023/04/22 00:45:45;;;;;;;9.13;4.60;;;;;;;7.73;85.06;99749.22;5006881;28;20501;-70
2023/04/22 00:48:12;;;;;;;10.30;3.97;;;;;;;7.57;86.04;99758.84;5003362;28;20577;-69
2023/04/22 00:50:37;;;;;;;9.93;4.35;;;;;;;7.67;86.63;99854.31;5022165;28;20150;-74
2023/04/22 00:53:02;;;;;;;11.13;3.93;;;;;;;7.64;87.78;99893.66;4993088;28;20149;-71
2023/04/22 00:55:28;;;;;;;6.73;4.17;;;;;;;7.59;88.07;99897.63;5002314;28;20038;-70
2023/04/22 00:57:57;;;;;;;8.13;3.60;;;;;;;7.70;88.68;99957.63;5004928;28;20037;-72
2023/04/22 01:00:25;;;;;;;6.97;3.85;;;;;;;7.67;89.14;99947.28;5009798;28;20068;-74
2023/04/22 01:02:53;;;;;;;6.38;3.72;;;;;;;7.59;90.44;99995.94;4988841;28;20089;-71
2023/04/22 01:05:19;;;;;;;7.13;4.47;;;;;;;7.50;90.94;99983.63;5008522;28;20030;-71
2023/04/22 01:07:49;;;;;;;15.48;4.75;;;;;;;7.54;91.83;100045.22;4988694;28;20033;-70
2023/04/22 01:10:15;;;;;;;7.63;4.45;;;;;;;7.55;92.48;100052.19;5002977;28;20042;-72
2023/04/22 01:12:41;;;;;;;11.38;3.80;;;;;;;7.53;92.93;100048.88;5006337;28;20410;-71
2023/04/22 01:15:07;;;;;;;14.47;4.20;;;;;;;7.57;93.44;100076.78;5021376;28;20358;-71
2023/04/22 01:17:33;;;;;;;;;;;;;;;7.42;94.31;100054.44;5007072;28;20048;-70
2023/04/22 01:19:59;;;;;;;9.30;4.30;;;;;;;7.41;94.99;100077.53;5020933;28;19918;-70
2023/04/22 01:22:26;;;;;;;8.00;4.43;;;;;;;7.40;95.88;100107.75;5004900;28;20033;-70
2023/04/22 01:24:52;;;;;;;9.43;4.07;;;;;;;7.32;96.70;100102.38;5004501;28;20026;-70
2023/04/22 01:27:20;;;;;;;9.57;4.30;;;;;;;7.34;97.98;100156.16;5009741;28;20037;-70
2023/04/22 01:29:46;;;;;;;;;;;;;;;7.45;98.44;100186.94;5006430;28;20038;-70
2023/04/22 01:32:11;;;;;;;7.65;4.40;;;;;;;7.30;98.51;100122.94;5009786;28;20006;-71
2023/04/22 01:34:37;;;;;;;8.67;3.77;;;;;;;7.35;99.45;100155.16;5006133;28;20053;-75
2023/04/22 01:37:02;;;;;;;9.80;4.77;;;;;;;7.19;100.00;100148.75;5005833;28;20077;-74
2023/04/22 01:39:28;;;;;;;8.50;5.77;;;;;;;7.25;100.00;100191.59;4984636;28;20033;-71
2023/04/22 01:41:55;;;;;;;;;;;;;;;7.19;100.00;100174.50;5003581;28;20414;-71
2023/04/22 01:44:20;;;;;;;10.30;5.10;;;;;;;7.24;100.00;100174.84;5009423;28;19944;-70
2023/04/22 01:46:46;;;;;;;9.37;5.10;;;;;;;7.27;100.00;100169.22;4988408;28;20064;-71
2023/04/22 01:49:11;;;;;;;14.60;5.30;;;;;;;7.29;100.00;100188.50;5009118;28;20689;-71
2023/04/22 01:51:36;;;;;;;11.93;5.03;;;;;;;7.32;100.00;100147.50;5020958;28;20034;-75
2023/04/22 01:54:03;;;;;;;8.33;5.00;;;;;;;7.24;100.00;100161.56;5004153;28;20048;-74
2023/04/22 01:56:28;;;;;;;9.27;4.72;;;;;;;7.22;100.00;100176.81;5005644;28;20471;-70
2023/04/22 01:58:54;;;;;;;7.95;4.18;;;;;;;7.34;100.00;100206.63;5004191;28;20061;-70
2023/04/22 02:01:19;;;;;;;8.63;4.87;;;;;;;7.15;100.00;100162.50;5004335;28;20065;-71
2023/04/22 02:03:45;;;;;;;9.40;4.97;;;;;;;7.07;100.00;100179.22;5005051;28;20072;-71
2023/04/22 02:06:12;;;;;;;8.90;5.40;;;;;;;7.13;100.00;100202.47;5009030;28;20346;-76
2023/04/22 02:08:37;;;;;;;8.03;4.77;;;;;;;7.07;100.00;100205.75;5020345;28;20041;-71
2023/04/22 02:11:02;;;;;;;12.43;4.73;;;;;;;7.11;100.00;100232.81;5003895;28;20480;-72
2023/04/22 02:13:38;;;;;;;10.77;5.40;;;;;;;7.10;100.00;100208.09;5020470;28;20026;-70
2023/04/22 02:16:05;;;;;;;10.02;5.63;;;;;;;7.17;100.00;100198.53;5003871;28;20120;-71
2023/04/22 02:18:30;;;;;;;9.40;5.18;;;;;;;7.12;100.00;100203.47;5017007;28;20042;-71
2023/04/22 02:20:55;;;;;;;12.30;5.80;;;;;;;7.15;100.00;100197.00;5002201;28;20034;-70
2023/04/22 02:23:21;;;;;;;10.73;4.70;;;;;;;7.17;100.00;100190.56;5003957;28;20824;-70
2023/04/22 02:25:49;;;;;;;8.75;4.65;;;;;;;7.11;100.00;100201.78;5003881;28;20025;-74
2023/04/22 02:28:18;;;;;;;6.65;4.53;;;;;;;7.18;100.00;100245.31;5005098;28;20152;-74
2023/04/22 02:30:46;;;;;;;;;;;;;;;7.15;100.00;100224.38;5004150;28;20557;-70
2023/04/22 02:33:11;;;;;;;12.13;4.60;;;;;;;7.23;100.00;100239.53;5002778;28;19917;-74
2023/04/22 02:35:37;;;;;;;10.88;4.93;;;;;;;7.11;100.00;100228.34;5003480;28;20041;-72
2023/04/22 02:38:02;;;;;;;11.37;5.10;;;;;;;7.10;100.00;100229.34;4987186;28;20118;-74
2023/04/22 02:40:28;;;;;;;9.33;5.60;;;;;;;7.12;100.00;100256.56;5019904;28;20038;-70
2023/04/22 02:42:53;;;;;;;11.83;5.13;;;;;;;7.10;100.00;100239.94;5003506;28;20049;-70
2023/04/22 02:45:20;;;;;;;8.85;5.05;;;;;;;6.96;100.00;100245.78;4991940;28;20080;-69
2023/04/22 02:47:48;;;;;;;9.23;5.57;;;;;;;7.00;100.00;100289.63;5005152;28;20021;-70
2023/04/22 02:50:14;;;;;;;12.23;6.43;;;;;;;7.06;100.00;100288.19;5003275;28;20057;-71
2023/04/22 02:52:39;;;;;;;10.02;5.38;;;;;;;7.07;100.00;100274.78;5003484;28;20446;-71
2023/04/22 02:55:05;;;;;;;11.90;5.73;;;;;;;7.03;100.00;100249.50;4986994;28;20502;-73
2023/04/22 02:57:31;;;;;;;12.80;5.13;;;;;;;7.03;100.00;100284.00;4987689;28;20295;-69
2023/04/22 02:59:56;;;;;;;8.37;4.90;;;;;;;7.07;100.00;100293.34;4987241;28;20038;-70
2023/04/22 03:02:22;;;;;;;8.80;4.90;;;;;;;6.96;100.00;100269.69;4987970;28;20422;-72
2023/04/22 03:05:06;;;;;;;10.00;5.18;;;;;;;6.98;100.00;100288.94;5003828;28;20521;-71
2023/04/22 03:07:31;;;;;;;12.80;6.03;;;;;;;6.88;100.00;100262.47;5001043;28;20026;-71
2023/04/22 03:09:57;;;;;;;8.10;4.90;;;;;;;6.95;100.00;100287.44;5003899;28;20038;-73
2023/04/22 03:12:23;;;;;;;9.97;5.73;;;;;;;6.87;100.00;100271.41;5004038;28;20037;-70
2023/04/22 03:14:49;;;;;;;;;;;;;;;6.88;100.00;100282.84;5004645;28;20022;-70
2023/04/22 03:17:14;;;;;;;9.95;5.20;;;;;;;6.85;100.00;100277.84;5026248;28;19920;-70
2023/04/22 03:19:40;;;;;;;9.23;5.05;;;;;;;6.92;100.00;100292.19;5019027;28;20495;-70
2023/04/22 03:22:06;;;;;;;11.43;5.73;;;;;;;6.88;100.00;100296.13;5019046;28;20204;-71
2023/04/22 03:24:31;;;;;;;11.73;5.30;;;;;;;7.00;100.00;100331.25;5009116;28;20284;-69
2023/04/22 03:27:01;;;;;;;10.52;5.75;;;;;;;7.00;100.00;100279.00;5007833;28;20523;-70
2023/04/22 03:29:28;;;;;;;10.40;5.43;;;;;;;7.03;100.00;100254.81;5007385;28;20534;-71
2023/04/22 03:31:53;;;;;;;13.50;7.13;;;;;;;7.03;100.00;100222.97;5007590;28;20169;-70
2023/04/22 03:34:19;;;;;;;11.27;5.40;;;;;;;7.01;100.00;100219.63;5007622;28;20080;-70
2023/04/22 03:36:45;;;;;;;8.32;5.75;;;;;;;7.06;100.00;100240.41;4991227;28;20041;-71
2023/04/22 03:39:11;;;;;;;14.10;5.68;;;;;;;7.09;100.00;100234.78;5005492;28;20033;-70
2023/04/22 03:41:37;;;;;;;9.18;6.07;;;;;;;7.09;100.00;100203.75;5008247;28;20076;-74
2023/04/22 03:44:02;;;;;;;11.67;5.77;;;;;;;7.10;100.00;100186.84;5023177;28;20514;-70
2023/04/22 03:46:29;;;;;;;11.13;5.55;;;;;;;7.13;100.00;100178.56;5004181;28;20113;-71
2023/04/22 03:49:02;;;;;;;13.60;5.80;;;;;;;7.13;100.00;100170.59;4991324;28;20026;-74
2023/04/22 03:51:31;;;;;;;14.73;6.32;;;;;;;7.09;100.00;100150.66;5017826;28;20022;-74
2023/04/22 03:54:00;;;;;;;10.13;5.55;;;;;;;7.03;100.00;100156.59;5007189;28;20030;-72
2023/04/22 03:56:27;;;;;;;8.20;5.63;;;;;;;7.08;100.00;100172.91;5007201;28;20049;-71
2023/04/22 03:58:56;;;;;;;9.90;5.47;;;;;;;7.14;100.00;100152.84;5012593;28;20049;-73
2023/04/22 04:01:22;;;;;;;13.13;5.68;;;;;;;7.14;100.00;100132.47;5007086;28;20048;-71
2023/04/22 04:03:51;;;;;;;12.38;7.60;;;;;;;7.14;100.00;100110.38;5006852;28;20504;-69
2023/04/22 04:06:22;;;;;;;10.27;6.50;;;;;;;7.16;100.00;100109.25;5003930;28;20030;-72
2023/04/22 04:08:47;;;;;;;13.30;6.83;;;;;;;7.18;100.00;100086.03;5020723;28;20538;-71
2023/04/22 04:11:13;;;;;;;10.52;5.95;;;;;;;7.23;100.00;100079.41;5007001;28;20065;-70
2023/04/22 04:13:39;;;;;;;8.95;5.30;;;;;;;7.33;100.00;100056.25;5008114;28;20030;-70
2023/04/22 04:16:33;;;;;;;12.43;5.93;;;;;;;7.36;100.00;100008.13;4937514;29;20054;-69
2023/04/22 04:19:06;;;;;;;9.00;6.00;;;;;;;7.43;100.00;99995.88;4917393;29;20102;-75
2023/04/22 04:21:35;;;;;;;11.52;5.85;;;;;;;7.46;100.00;99994.72;4924856;29;20062;-74
2023/04/22 04:24:04;;;;;;;9.68;5.40;;;;;;;7.47;100.00;99991.06;4926214;29;20036;-72
2023/04/22 04:26:33;;;;;;;14.88;6.55;;;;;;;7.39;100.00;99954.69;4911229;29;20038;-70
2023/04/22 04:29:07;;;;;;;10.13;5.80;;;;;;;7.52;100.00;99970.19;4912672;29;20047;-75
2023/04/22 04:31:32;;;;;;;8.73;6.13;;;;;;;7.58;100.00;99949.09;4921228;29;20123;-71
2023/04/22 04:33:59;;;;;;;12.10;5.93;;;;;;;7.56;100.00;99921.88;4935039;29;20114;-71
2023/04/22 04:36:27;;;;;;;10.40;6.03;;;;;;;7.64;100.00;99904.28;4933369;29;20035;-71
2023/04/22 04:38:54;;;;;;;10.65;6.00;;;;;;;7.66;100.00;99899.66;4927309;29;20040;-70
2023/04/22 04:41:20;;;;;;;9.52;6.07;;;;;;;7.68;100.00;99906.47;4924412;29;20039;-72
2023/04/22 04:43:46;;;;;;;16.48;7.28;;;;;;;7.81;100.00;99917.41;4927317;29;20138;-75
2023/04/22 04:46:23;;;;;;;12.63;7.45;;;;;;;7.82;100.00;99887.19;4927708;29;20039;-70
2023/04/22 04:48:50;;;;;;;9.98;6.30;;;;;;;7.86;100.00;99881.53;4895978;29;20039;-71
2023/04/22 04:51:16;;;;;;;10.77;5.82;;;;;;;7.89;100.00;99870.56;4926111;29;20036;-70
2023/04/22 04:53:48;;;;;;;10.70;6.25;;;;;;;7.91;100.00;99848.16;4988670;28;20064;-69
2023/04/22 04:56:13;;;;;;;10.63;6.13;;;;;;;8.01;100.00;99861.28;5002985;28;20495;-70
2023/04/22 04:58:39;;;;;;;12.38;6.78;;;;;;;7.98;100.00;99835.03;5002800;28;20049;-70
2023/04/22 05:01:25;;;;;;;10.50;6.45;;;;;;;8.02;100.00;99818.56;5003059;28;20026;-70
2023/04/22 05:03:52;;;;;;;15.15;6.43;;;;;;;8.12;100.00;99826.34;5021409;28;20045;-72
2023/04/22 05:06:19;;;;;;;11.65;6.10;;;;;;;8.60;100.00;100068.56;5006383;28;20026;-70
2023/04/22 05:08:52;;;;;;;12.15;6.90;;;;;;;8.61;100.00;99860.03;5005202;28;20034;-73
2023/04/22 05:11:18;;;;;;;10.70;6.53;;;;;;;8.46;100.00;99708.28;5010125;28;20418;-70
2023/04/22 05:13:46;;;;;;;9.65;6.60;;;;;;;8.38;100.00;99692.31;4988787;28;20586;-73
2023/04/22 05:16:17;;;;;;;9.45;6.35;;;;;;;8.41;100.00;99715.97;5009814;28;20030;-71
2023/04/22 05:18:43;;;;;;;10.27;5.33;;;;;;;8.60;100.00;99725.34;5021286;28;20038;-70
2023/04/22 05:21:09;;;;;;;11.90;6.35;;;;;;;9.27;100.00;99804.59;5004680;28;20037;-70
2023/04/22 05:23:34;;;;;;;15.33;7.40;;;;;;;10.04;100.00;99632.97;5005032;28;20123;-70
2023/04/22 05:26:00;;;;;;;11.43;5.95;;;;;;;10.62;96.57;99422.19;5004558;28;20022;-70
2023/04/22 05:28:26;;;;;;;11.47;6.27;;;;;;;11.09;93.34;99332.47;5004258;28;20609;-72
2023/04/22 05:30:54;;;;;;;9.52;6.63;;;;;;;11.04;89.92;99057.19;5010859;28;20029;-70
2023/04/22 05:33:20;;;;;;;11.17;6.37;;;;;;;11.01;89.25;99057.63;4987545;28;20392;-71
2023/04/22 05:35:45;;;;;;;10.30;6.23;;;;;;;11.39;88.74;99146.75;5004020;28;20022;-71
2023/04/22 05:38:11;;;;;;;11.43;6.40;;;;;;;11.11;87.20;98984.03;5003176;28;20742;-72
2023/04/22 05:40:39;;;;;;;12.77;6.30;;;;;;;11.10;86.98;99003.78;5003331;28;20038;-72
2023/04/22 05:43:05;;;;;;;11.82;6.72;;;;;;;11.64;85.65;98998.28;5020548;28;20057;-73
2023/04/22 05:45:31;;;;;;;12.10;6.32;;;;;;;11.79;84.05;98897.22;5018158;28;20050;-73
2023/04/22 05:47:57;;;;;;;10.07;6.05;;;;;;;11.17;83.35;98684.06;4986646;28;20038;-73
2023/04/22 05:50:24;;;;;;;9.93;6.35;;;;;;;12.05;84.61;99123.59;5003996;28;20517;-71
2023/04/22 05:52:59;;;;;;;12.93;7.18;;;;;;;12.69;81.39;98910.34;5020886;28;20033;-71
2023/04/22 05:55:26;;;;;;;9.98;5.78;;;;;;;12.87;79.33;98741.63;5014133;28;20042;-75
2023/04/22 05:57:52;;;;;;;10.50;5.90;;;;;;;13.24;78.53;98787.06;5004271;28;20491;-72
2023/04/22 06:00:36;;;;;;;12.35;6.35;;;;;;;12.51;76.62;98426.66;4990542;28;20392;-71
2023/04/22 06:03:33;;;;;;;11.68;6.15;;;;;;;12.71;76.60;98516.53;5000628;28;20052;-70
2023/04/22 06:06:00;;;;;;;10.25;6.15;;;;;;;13.06;77.03;98723.66;5009596;28;20108;-70
2023/04/22 06:08:26;;;;;;;10.70;5.83;;;;;;;12.77;77.13;98681.63;4987635;28;20033;-72
2023/04/22 06:10:51;;;;;;;10.70;6.35;;;;;;;13.54;76.00;98774.75;5005545;28;20034;-75
2023/04/22 06:13:17;;;;;;;11.90;5.90;;;;;;;12.87;74.76;98467.66;5003892;28;20038;-73
2023/04/22 06:15:42;;;;;;;11.77;6.50;;;;;;;13.39;74.28;98604.47;5003940;28;20285;-74
2023/04/22 06:18:09;;;;;;;9.52;6.70;;;;;;;12.47;74.46;98369.28;5003799;28;20513;-70
2023/04/22 06:20:35;;;;;;;11.23;6.77;;;;;;;12.98;75.74;98741.91;4987623;28;20038;-73
2023/04/22 06:23:00;;;;;;;;;;;;;;;12.61;75.87;98677.72;5004154;28;20132;-70
2023/04/22 06:25:26;;;;;;;;;;;;;;;12.44;76.10;98645.41;4988274;28;19970;-72
2023/04/22 06:27:51;;;;;;;15.47;6.27;;;;;;;13.14;75.43;98810.13;5018544;28;19913;-74
2023/04/22 06:30:19;;;;;;;12.13;6.30;;;;;;;12.08;75.08;98432.28;5008452;28;20372;-70
2023/04/22 06:32:45;;;;;;;10.02;6.57;;;;;;;13.07;75.06;98797.63;4984266;28;20645;-70
2023/04/22 06:35:10;;;;;;;12.43;7.80;;;;;;;13.27;73.85;98670.56;5001281;28;20030;-71
2023/04/22 06:37:35;;;;;;;9.70;6.77;;;;;;;12.89;74.15;98620.88;5020217;28;20181;-72
2023/04/22 06:40:09;;;;;;;12.50;6.20;;;;;;;13.32;74.12;98780.59;5003303;28;20093;-74
2023/04/22 06:42:53;;;;;;;11.43;7.03;;;;;;;13.16;73.43;98607.91;5005269;28;20422;-69
2023/04/22 06:45:47;;;;;;;14.88;7.10;;;;;;;13.00;74.03;98680.91;5005492;28;20152;-71
2023/04/22 06:48:35;;;;;;;11.50;6.40;;;;;;;12.91;73.75;98597.38;4992556;28;20111;-70
2023/04/22 06:51:14;;;;;;;9.23;6.82;;;;;;;13.76;73.97;98909.09;5015905;28;20037;-72
2023/04/22 06:53:39;;;;;;;12.15;7.05;;;;;;;13.58;71.09;98505.13;5003268;28;20026;-70
2023/04/22 06:56:05;;;;;;;10.60;7.17;;;;;;;13.20;71.97;98517.13;5003407;28;20033;-71
2023/04/22 06:58:31;;;;;;;11.05;7.05;;;;;;;13.13;72.70;98637.81;5004672;28;20030;-71
2023/04/22 07:00:56;;;;;;;9.93;6.60;;;;;;;13.66;72.63;98765.66;5019888;28;20048;-75
2023/04/22 07:03:21;;;;;;;8.40;6.30;;;;;;;13.52;72.21;98667.72;5008211;28;20033;-74
2023/04/22 07:05:58;;;;;;;16.10;7.00;;;;;;;14.05;71.82;98802.81;5004785;28;20026;-70
2023/04/22 07:08:24;;;;;;;9.98;6.97;;;;;;;13.20;72.02;98554.66;5008040;28;20041;-70
2023/04/22 07:10:49;;;;;;;11.83;6.57;;;;;;;13.88;72.44;98842.88;4984725;28;20022;-71
2023/04/22 07:13:35;;;;;;;10.52;6.13;;;;;;;14.07;71.39;98733.59;4985535;28;20030;-71
2023/04/22 07:16:01;;;;;;;12.30;6.63;;;;;;;13.56;70.98;98497.31;5008779;28;20080;-71
2023/04/22 07:18:27;;;;;;;12.10;7.15;;;;;;;13.48;71.31;98567.38;5003734;28;20065;-75
2023/04/22 07:20:52;;;;;;;11.95;7.05;;;;;;;13.80;71.84;98744.00;5003106;28;20510;-70
2023/04/22 07:23:18;;;;;;;17.10;6.97;;;;;;;14.32;71.65;98872.94;5004570;28;20025;-69
2023/04/22 07:25:43;;;;;;;12.10;7.00;;;;;;;14.49;70.71;98796.03;5019768;28;20021;-72
2023/04/22 07:28:08;;;;;;;11.20;6.80;;;;;;;14.76;70.10;98808.97;5003258;28;20365;-70
2023/04/22 07:30:34;;;;;;;12.10;7.23;;;;;;;14.91;69.47;98743.97;5004705;28;20059;-71
2023/04/22 07:32:59;;;;;;;9.33;6.87;;;;;;;14.63;69.43;98664.19;5019586;28;20084;-73
2023/04/22 07:35:24;;;;;;;13.00;8.00;;;;;;;15.27;68.30;98694.38;5004459;28;20121;-70
2023/04/22 07:37:50;;;;;;;12.33;7.23;;;;;;;14.46;68.60;98487.72;5019697;28;20034;-71
2023/04/22 07:40:15;;;;;;;13.03;7.03;;;;;;;14.75;68.81;98630.06;5004444;28;20034;-72
2023/04/22 07:42:41;;;;;;;10.97;8.17;;;;;;;14.50;69.16;98614.25;5004565;28;20509;-70
2023/04/22 07:45:07;;;;;;;14.07;6.47;;;;;;;14.69;68.93;98664.06;5004600;28;20026;-75
2023/04/22 07:47:32;;;;;;;10.93;7.70;;;;;;;14.43;68.81;98523.13;5019776;28;20387;-71
2023/04/22 07:49:58;;;;;;;11.00;7.50;;;;;;;14.45;68.96;98628.41;4986481;28;20045;-70
2023/04/22 07:52:23;;;;;;;15.52;6.88;;;;;;;15.01;69.73;98921.53;5004526;28;20109;-70
2023/04/22 07:54:49;;;;;;;9.63;6.93;;;;;;;14.93;69.13;98725.75;5003953;28;20034;-70
2023/04/22 07:57:14;;;;;;;9.30;6.47;;;;;;;15.09;69.19;98894.28;5004357;28;20487;-73
2023/04/22 07:59:40;;;;;;;14.18;7.82;;;;;;;15.15;68.10;98731.25;4986702;28;20026;-70
2023/04/22 08:02:05;;;;;;;10.23;6.93;;;;;;;15.81;67.69;98885.75;5006482;28;20533;-70
2023/04/22 08:04:30;;;;;;;11.63;7.00;;;;;;;15.92;67.76;98884.06;5007437;28;20568;-71
2023/04/22 08:06:56;;;;;;;9.63;7.10;;;;;;;15.68;66.98;98625.09;5007710;28;20045;-70
2023/04/22 08:09:21;;;;;;;12.32;6.57;;;;;;;16.51;66.72;98913.28;5011046;28;20041;-75
2023/04/22 08:11:47;;;;;;;11.32;7.47;;;;;;;16.05;65.82;98608.38;5007608;28;20028;-72
2023/04/22 08:14:12;;;;;;;18.00;7.57;;;;;;;15.84;66.71;98731.09;5007525;28;20034;-71
2023/04/22 08:16:38;;;;;;;10.47;6.60;;;;;;;16.49;66.11;98852.66;5007524;28;20077;-71
2023/04/22 08:19:03;;;;;;;13.95;7.85;;;;;;;16.29;66.04;98778.56;5007123;28;20034;-70
2023/04/22 08:21:30;;;;;;;9.93;7.40;;;;;;;16.32;65.65;98699.16;5022614;28;20037;-72
2023/04/22 08:23:55;;;;;;;;;;;;;;;16.43;64.79;98612.06;5007546;28;20076;-71
2023/04/22 08:26:21;;;;;;;11.23;7.10;;;;;;;16.72;64.66;98668.41;4994411;28;20458;-70
2023/04/22 08:28:46;;;;;;;10.97;7.33;;;;;;;16.17;64.35;98411.75;5007096;28;20450;-74
2023/04/22 08:31:12;;;;;;;9.98;7.35;;;;;;;16.34;65.07;98595.56;5005950;28;20120;-72
2023/04/22 08:33:39;;;;;;;9.90;6.97;;;;;;;17.17;65.61;99023.19;5005702;28;20442;-71
2023/04/22 08:36:04;;;;;;;10.80;7.47;;;;;;;16.44;64.35;98522.94;5006942;28;20080;-70
2023/04/22 08:38:30;;;;;;;12.38;7.88;;;;;;;16.82;64.70;98698.19;5007170;28;20042;-71
2023/04/22 08:40:57;;;;;;;8.83;7.03;;;;;;;17.61;64.68;99001.66;5005638;28;20044;-72
2023/04/22 08:43:24;;;;;;;10.95;7.15;;;;;;;17.31;64.49;98862.63;5006867;28;20077;-71
2023/04/22 08:45:50;;;;;;;12.63;7.05;;;;;;;17.56;64.20;98870.22;5006807;28;20383;-71
2023/04/22 08:48:16;;;;;;;12.85;8.13;;;;;;;17.12;63.83;98610.59;5005427;28;20198;-73
2023/04/22 08:50:41;;;;;;;13.37;7.43;;;;;;;17.39;63.89;98756.19;5006902;28;20038;-75
2023/04/22 08:53:07;;;;;;;10.00;7.20;;;;;;;16.93;64.49;98681.06;5006644;28;20057;-75
2023/04/22 08:55:34;;;;;;;9.83;7.07;;;;;;;17.91;64.45;99049.81;5006914;28;20048;-71
2023/04/22 08:58:00;;;;;;;13.45;8.65;;;;;;;18.35;62.99;98934.44;5021910;28;20038;-71
2023/04/22 09:00:26;;;;;;;;;;;;;;;19.33;62.13;99103.63;5006989;28;20486;-71
2023/04/22 09:02:52;;;;;;;13.32;7.90;;;;;;;19.42;60.80;98811.72;5006712;28;19917;-75
2023/04/22 09:05:21;;;;;;;;;;;;;;;18.41;60.61;98454.41;5010557;28;20026;-70
2023/04/22 09:07:47;;;;;;;10.75;7.40;;;;;;;19.85;60.83;99044.38;5005314;28;19917;-75
2023/04/22 09:10:13;;;;;;;10.30;6.85;;;;;;;18.89;59.80;98506.28;5006287;28;20034;-71
2023/04/22 09:12:42;;;;;;;14.23;6.93;;;;;;;18.07;61.05;98417.09;5004615;28;20274;-70
2023/04/22 09:15:09;;;;;;;9.35;7.55;;;;;;;18.52;61.14;98609.22;5004044;28;20069;-70
2023/04/22 09:17:37;;;;;;;14.38;7.03;;;;;;;17.69;61.34;98359.78;5006163;28;20518;-71
2023/04/22 09:20:05;;;;;;;10.18;6.75;;;;;;;18.20;62.16;98702.03;5006049;28;20041;-72
2023/04/22 09:22:43;;;;;;;10.32;6.80;;;;;;;18.06;61.45;98565.88;5021532;28;20454;-71
2023/04/22 09:25:15;;;;;;;11.45;7.32;;;;;;;19.08;60.86;98835.66;5005925;28;20033;-70
2023/04/22 09:27:41;;;;;;;11.48;6.25;;;;;;;19.04;60.69;98794.03;5006111;28;20034;-75
2023/04/22 09:30:08;;;;;;;11.10;6.93;;;;;;;18.53;60.01;98489.25;5005775;28;20045;-74
2023/04/22 09:32:34;;;;;;;9.57;7.57;;;;;;;18.90;59.92;98605.25;5006329;28;20778;-70
2023/04/22 09:34:59;;;;;;;17.47;8.20;;;;;;;19.39;60.87;98915.88;5021456;28;20037;-71
2023/04/22 09:37:26;;;;;;;13.50;6.65;;;;;;;18.89;58.96;98373.81;5006350;28;20056;-72
2023/04/22 09:39:53;;;;;;;11.63;6.47;;;;;;;19.19;59.80;98681.25;5020933;28;20029;-74
2023/04/22 09:42:20;;;;;;;21.00;6.97;;;;;;;19.96;59.23;98861.91;5006044;28;20407;-71
2023/04/22 09:44:53;;;;;;;14.95;7.28;;;;;;;19.21;58.41;98401.59;5020941;28;20121;-72
2023/04/22 09:47:20;;;;;;;9.52;6.57;;;;;;;19.66;57.69;98468.25;5006075;28;20484;-71
2023/04/22 09:49:46;;;;;;;11.43;6.90;;;;;;;18.92;57.97;98221.09;5005730;28;20061;-73
2023/04/22 09:52:23;;;;;;;15.50;7.22;;;;;;;19.28;58.65;98580.66;5004591;28;20119;-71
2023/04/22 09:54:53;;;;;;;14.75;6.88;;;;;;;19.13;59.32;98557.94;5004250;28;20037;-71
2023/04/22 09:57:20;;;;;;;12.88;6.60;;;;;;;19.89;58.37;98705.09;5006280;28;20470;-71
2023/04/22 09:59:45;;;;;;;12.63;6.90;;;;;;;19.18;57.32;98216.34;5004656;28;20064;-71
2023/04/22 10:02:11;;;;;;;11.65;7.80;;;;;;;19.21;58.17;98413.22;5003931;28;20051;-72
2023/04/22 10:04:36;;;;;;;10.52;6.57;;;;;;;19.47;57.99;98497.00;5005949;28;20045;-74
2023/04/22 10:07:02;;;;;;;11.20;6.95;;;;;;;19.98;56.57;98457.00;5005593;28;20171;-74
2023/04/22 10:09:28;;;;;;;8.03;6.00;;;;;;;20.68;57.54;98851.03;5004424;28;20156;-71
2023/04/22 10:11:59;;;;;;;10.80;6.22;;;;;;;21.26;56.66;98905.66;5005508;28;20030;-72
2023/04/22 10:14:24;;;;;;;11.50;6.28;;;;;;;21.08;55.29;98519.91;5008842;28;20058;-72
2023/04/22 10:16:59;;;;;;;12.48;6.43;;;;;;;19.97;55.06;98049.22;5004083;28;20018;-72
2023/04/22 10:19:26;;;;;;;11.05;5.93;;;;;;;21.83;54.40;98716.88;5004078;28;20069;-71
2023/04/22 10:21:55;;;;;;;12.10;6.20;;;;;;;21.65;53.27;98359.94;5020399;28;20038;-75
2023/04/22 10:24:20;;;;;;;11.70;4.80;;;;;;;21.12;52.19;97984.91;5005158;28;20029;-72
2023/04/22 10:26:57;;;;;;;9.52;5.13;;;;;;;20.71;51.59;97707.22;5028145;23;20041;-82
2023/04/22 10:29:24;;;;;;;6.80;4.75;;;;;;;21.96;50.88;98133.25;5012917;28;20423;-80
2023/04/22 10:32:23;;;;;;;9.50;5.57;;;;;;;21.65;49.77;97740.94;4993463;28;20022;-82
2023/04/22 10:35:05;;;;;;;10.95;5.55;;;;;;;21.59;49.71;97722.41;5012612;28;20037;-80
2023/04/22 10:37:30;;;;;;;9.50;5.40;;;;;;;20.95;49.79;97517.16;5010362;28;20049;-84
2023/04/22 10:40:10;;;;;;;10.10;5.80;;;;;;;21.42;50.65;97916.56;4988215;28;20304;-83
2023/04/22 10:42:39;;;;;;;10.65;5.30;;;;;;;22.02;50.75;98252.38;4984017;28;20026;-83
2023/04/22 10:45:06;;;;;;;9.75;4.82;;;;;;;22.94;48.28;98005.00;4998171;28;20037;-82
2023/04/22 10:47:36;;;;;;;18.65;5.28;;;;;;;21.32;49.07;97489.94;5004183;28;20023;-81
2023/04/22 10:50:20;;;;;;;10.50;5.50;;;;;;;21.90;48.39;97644.47;4984816;28;20038;-82
2023/04/22 10:52:51;;;;;;;9.02;4.90;;;;;;;21.67;47.75;97442.84;4994184;28;20966;-84
2023/04/22 10:55:17;;;;;;;11.00;4.75;;;;;;;21.44;49.49;97708.06;5010999;28;20083;-83
2023/04/22 10:57:45;;;;;;;10.23;5.40;;;;;;;21.96;48.24;97731.25;5015864;28;20034;-83
2023/04/22 11:00:51;;;;;;;13.10;5.00;;;;;;;22.25;48.25;97790.59;4988052;28;20040;-79
2023/04/22 11:03:17;;;;;;;9.18;4.78;;;;;;;22.12;46.97;97458.09;4995377;28;20042;-81
2023/04/22 11:05:43;;;;;;;8.98;4.53;;;;;;;21.92;47.55;97571.66;4998347;28;20030;-83
2023/04/22 11:08:19;;;;;;;5.25;4.57;;;;;;;22.89;46.81;97814.72;4991393;28;20069;-81
2023/04/22 11:10:47;;;;;;;10.57;4.80;;;;;;;22.73;46.80;97670.19;4997135;28;20030;-82
2023/04/22 11:13:15;;;;;;;6.18;4.40;;;;;;;22.54;46.30;97518.25;5005673;28;20037;-84
2023/04/22 11:15:43;;;;;;;8.70;5.90;;;;;;;21.64;47.44;97339.53;5003383;28;20447;-83
2023/04/22 11:18:12;;;;;;;13.60;4.60;;;;;;;22.37;47.19;97712.00;5015625;28;20036;-84
2023/04/22 11:20:38;;;;;;;9.45;4.75;;;;;;;21.47;48.77;97620.63;5021996;28;20121;-84
2023/04/22 11:23:03;;;;;;;9.53;4.93;;;;;;;21.57;47.97;97478.41;4991842;28;20033;-81
2023/04/22 11:25:29;;;;;;;12.25;4.45;;;;;;;22.26;47.76;97749.50;5010931;28;20038;-83
2023/04/22 11:27:55;;;;;;;8.02;4.38;;;;;;;22.33;47.79;97793.34;5004841;28;20042;-84
2023/04/22 11:30:23;;;;;;;10.30;5.38;;;;;;;22.06;47.29;97625.06;5000805;28;20077;-84
2023/04/22 11:32:57;;;;;;;9.35;4.50;;;;;;;22.41;47.59;97816.28;4995031;28;20019;-84